createdAt,value
2018-03-17T00:01:50.411Z,9.52
2018-03-17T00:04:17.954Z,7.25
2018-03-17T00:06:46.282Z,8.48
2018-03-17T00:09:14.580Z,12.68
2018-03-17T00:11:42.126Z,6.47
2018-03-17T00:14:09.656Z,16.10
2018-03-17T00:16:37.197Z,5.45
2018-03-17T00:19:04.778Z,18.85
2018-03-17T00:21:32.281Z,7.55
2018-03-17T00:24:00.581Z,10.73
2018-03-17T00:26:28.123Z,11.20
2018-03-17T00:28:56.455Z,8.82
2018-03-17T00:31:23.982Z,7.82
2018-03-17T00:33:51.540Z,8.32
2018-03-17T00:36:19.074Z,8.60
2018-03-17T00:38:47.387Z,6.75
2018-03-17T00:41:14.944Z,8.98
2018-03-17T00:43:42.488Z,5.60
2018-03-17T00:46:11.945Z,7.05
2018-03-17T00:48:40.274Z,4.80
2018-03-17T00:51:07.807Z,5.60
2018-03-17T00:53:35.336Z,7.80
2018-03-17T00:56:02.877Z,6.18
2018-03-17T00:58:30.396Z,5.72
2018-03-17T01:00:58.690Z,5.50
2018-03-17T01:03:26.248Z,5.82
2018-03-17T01:05:53.767Z,4.70
2018-03-17T01:08:21.308Z,8.88
2018-03-17T01:10:48.851Z,5.37
2018-03-17T01:13:16.373Z,5.75
2018-03-17T01:15:44.658Z,5.00
2018-03-17T01:18:12.229Z,7.43
2018-03-17T01:20:39.751Z,4.87
2018-03-17T01:23:07.261Z,4.47
2018-03-17T01:25:34.813Z,4.82
2018-03-17T01:28:02.325Z,5.50
2018-03-17T01:30:29.846Z,6.82
2018-03-17T01:32:57.395Z,4.30
2018-03-17T01:35:24.930Z,5.45
2018-03-17T01:37:52.465Z,5.87
2018-03-17T01:40:20.778Z,9.10
2018-03-17T01:42:48.290Z,5.43
2018-03-17T01:45:15.810Z,6.68
2018-03-17T01:47:43.353Z,6.00
2018-03-17T01:50:10.865Z,5.32
2018-03-17T01:52:38.385Z,5.78
2018-03-17T01:55:05.945Z,7.05
2018-03-17T01:57:33.471Z,6.47
2018-03-17T02:00:01.772Z,8.30
2018-03-17T02:02:29.321Z,5.85
2018-03-17T02:04:56.855Z,11.95
2018-03-17T02:07:25.153Z,6.40
2018-03-17T02:09:52.705Z,5.62
2018-03-17T02:12:21.012Z,4.65
2018-03-17T02:14:48.543Z,5.82
2018-03-17T02:17:16.202Z,5.97
2018-03-17T02:19:43.619Z,4.05
2018-03-17T02:22:12.953Z,5.65
2018-03-17T02:24:41.270Z,8.40
2018-03-17T02:27:08.812Z,5.32
2018-03-17T02:29:36.331Z,9.30
2018-03-17T02:32:03.897Z,6.75
2018-03-17T02:34:32.203Z,6.12
2018-03-17T02:36:59.740Z,6.45
2018-03-17T02:39:28.068Z,4.70
2018-03-17T02:41:55.610Z,6.00
2018-03-17T02:44:23.136Z,7.70
2018-03-17T02:46:51.455Z,5.97
2018-03-17T02:49:18.974Z,6.50
2018-03-17T02:51:47.269Z,6.93
2018-03-17T02:54:14.833Z,8.32
2018-03-17T02:56:42.368Z,7.82
2018-03-17T02:59:10.668Z,7.90
2018-03-17T03:01:38.216Z,11.63
2018-03-17T03:04:05.739Z,6.07
2018-03-17T03:06:33.274Z,11.32
2018-03-17T03:09:00.826Z,7.10
2018-03-17T03:11:28.341Z,8.68
2018-03-17T03:13:56.635Z,8.85
2018-03-17T03:16:24.200Z,6.30
2018-03-17T03:18:51.728Z,6.12
2018-03-17T03:21:20.012Z,9.20
2018-03-17T03:23:48.312Z,5.90
2018-03-17T03:26:15.832Z,6.18
2018-03-17T03:28:43.345Z,9.70
2018-03-17T03:31:10.905Z,8.95
2018-03-17T03:33:38.422Z,9.50
2018-03-17T03:36:06.723Z,10.30
2018-03-17T03:38:34.284Z,6.12
2018-03-17T03:41:01.824Z,8.30
2018-03-17T03:43:30.124Z,8.70
2018-03-17T03:45:57.660Z,6.57
2018-03-17T03:48:25.194Z,10.80
2018-03-17T03:50:52.735Z,10.48
2018-03-17T03:53:20.286Z,8.05
2018-03-17T03:55:47.806Z,7.57
2018-03-17T03:58:15.333Z,11.65
2018-03-17T04:00:43.646Z,11.40
2018-03-17T04:03:11.165Z,10.93
2018-03-17T04:05:38.692Z,9.93
2018-03-17T04:08:06.258Z,8.95
2018-03-17T04:10:33.800Z,11.73
2018-03-17T04:13:01.321Z,9.50
2018-03-17T04:15:29.625Z,9.75
2018-03-17T04:17:57.159Z,8.48
2018-03-17T04:20:25.456Z,12.45
2018-03-17T04:22:52.998Z,9.18
2018-03-17T04:25:21.301Z,15.30
2018-03-17T04:27:48.832Z,16.27
2018-03-17T04:30:17.142Z,9.50
2018-03-17T04:32:44.670Z,8.55
2018-03-17T04:35:12.197Z,8.38
2018-03-17T04:37:39.732Z,7.65
2018-03-17T04:40:07.268Z,12.10
2018-03-17T04:42:34.807Z,13.60
2018-03-17T04:45:02.356Z,17.85
2018-03-17T04:47:30.648Z,8.07
2018-03-17T04:49:58.180Z,15.90
2018-03-17T04:52:26.487Z,12.52
2018-03-17T04:54:54.018Z,8.38
2018-03-17T04:57:22.307Z,7.18
2018-03-17T04:59:50.630Z,6.90
2018-03-17T05:02:18.163Z,8.65
2018-03-17T05:04:45.704Z,11.85
2018-03-17T05:07:14.007Z,11.25
2018-03-17T05:09:41.526Z,8.02
2018-03-17T05:12:09.843Z,10.48
2018-03-17T05:14:37.409Z,8.85
2018-03-17T05:17:04.928Z,9.18
2018-03-17T05:19:33.212Z,5.95
2018-03-17T05:22:01.543Z,8.68
2018-03-17T05:24:29.062Z,9.95
2018-03-17T05:26:56.604Z,8.68
2018-03-17T05:29:24.929Z,8.27
2018-03-17T05:31:52.453Z,9.10
2018-03-17T05:34:19.991Z,14.55
2018-03-17T05:36:48.299Z,6.82
2018-03-17T05:39:15.828Z,6.37
2018-03-17T05:41:44.127Z,9.23
2018-03-17T05:44:11.691Z,9.40
2018-03-17T05:46:39.213Z,7.75
2018-03-17T05:49:06.748Z,6.70
2018-03-17T05:51:34.303Z,7.12
2018-03-17T05:54:01.825Z,7.35
2018-03-17T05:56:29.343Z,7.43
2018-03-17T05:58:57.667Z,9.75
2018-03-17T06:01:25.201Z,8.60
2018-03-17T06:03:53.486Z,7.55
2018-03-17T06:06:21.044Z,8.10
2018-03-17T06:08:49.344Z,8.98
2018-03-17T06:11:16.857Z,9.75
2018-03-17T06:13:44.420Z,7.37
2018-03-17T06:16:12.714Z,6.35
2018-03-17T06:18:40.999Z,6.43
2018-03-17T06:21:08.570Z,8.85
2018-03-17T06:23:36.083Z,7.57
2018-03-17T06:26:03.609Z,6.45
2018-03-17T06:28:31.158Z,6.68
2018-03-17T06:30:58.673Z,8.65
2018-03-17T06:33:26.961Z,6.95
2018-03-17T06:35:55.268Z,5.75
2018-03-17T06:38:22.795Z,6.30
2018-03-17T06:40:50.452Z,5.22
2018-03-17T06:43:18.771Z,5.95
2018-03-17T06:45:46.307Z,8.15
2018-03-17T06:48:13.828Z,5.82
2018-03-17T06:50:41.381Z,4.97
2018-03-17T06:53:08.893Z,5.12
2018-03-17T06:55:37.031Z,4.97
2018-03-17T06:58:05.346Z,4.97
2018-03-17T07:00:32.915Z,5.72
2018-03-17T07:03:00.413Z,4.22
2018-03-17T07:05:27.965Z,3.87
2018-03-17T07:07:55.493Z,4.90
2018-03-17T07:10:23.028Z,5.10
2018-03-17T07:12:50.575Z,4.10
2018-03-17T07:15:18.860Z,5.18
2018-03-17T07:17:46.434Z,10.07
2018-03-17T07:20:14.732Z,5.55
2018-03-17T07:22:42.248Z,4.90
2018-03-17T07:25:09.785Z,3.10
2018-03-17T07:27:38.117Z,4.25
2018-03-17T07:30:05.646Z,3.87
2018-03-17T07:32:33.230Z,3.22
2018-03-17T07:35:00.782Z,3.22
2018-03-17T07:37:28.308Z,3.30
2018-03-17T07:39:56.625Z,3.12
2018-03-17T07:42:24.213Z,4.30
2018-03-17T07:44:51.731Z,6.15
2018-03-17T07:47:19.258Z,4.82
2018-03-17T07:49:47.572Z,4.03
2018-03-17T07:52:15.099Z,3.58
2018-03-17T07:54:43.377Z,4.75
2018-03-17T07:57:11.708Z,4.28
2018-03-17T07:59:39.249Z,2.87
2018-03-17T08:02:06.776Z,3.33
2018-03-17T08:04:35.083Z,4.25
2018-03-17T08:07:02.629Z,3.60
2018-03-17T08:09:30.177Z,2.92
2018-03-17T08:11:57.757Z,4.22
2018-03-17T08:14:25.354Z,5.20
2018-03-17T08:16:52.834Z,4.15
2018-03-17T08:19:20.411Z,9.10
2018-03-17T08:21:47.961Z,3.22
2018-03-17T08:24:16.239Z,4.32
2018-03-17T08:26:43.821Z,5.30
2018-03-17T08:29:11.362Z,4.15
2018-03-17T08:31:39.654Z,4.53
2018-03-17T08:34:07.243Z,7.47
2018-03-17T08:36:34.753Z,4.68
2018-03-17T08:39:03.070Z,5.10
2018-03-17T08:41:30.642Z,5.75
2018-03-17T08:43:58.175Z,4.07
2018-03-17T08:46:25.703Z,5.40
2018-03-17T08:48:54.027Z,6.23
2018-03-17T08:51:21.546Z,8.47
2018-03-17T08:53:49.869Z,5.20
2018-03-17T08:56:17.439Z,6.63
2018-03-17T08:58:44.998Z,6.20
2018-03-17T09:01:12.546Z,7.97
2018-03-17T09:03:40.106Z,7.10
2018-03-17T09:06:07.659Z,9.00
2018-03-17T09:08:35.202Z,5.47
2018-03-17T09:11:02.762Z,8.30
2018-03-17T09:13:30.282Z,7.53
2018-03-17T09:15:58.597Z,7.85
2018-03-17T09:18:26.152Z,9.18
2018-03-17T09:20:53.706Z,8.23
2018-03-17T09:23:21.249Z,8.17
2018-03-17T09:25:49.577Z,11.30
2018-03-17T09:28:17.143Z,10.80
2018-03-17T09:30:44.692Z,8.90
2018-03-17T09:33:12.255Z,7.87
2018-03-17T09:35:39.791Z,7.87
2018-03-17T09:38:07.331Z,12.40
2018-03-17T09:40:34.896Z,8.17
2018-03-17T09:43:02.428Z,7.37
2018-03-17T09:45:30.725Z,7.30
2018-03-17T09:47:59.040Z,7.57
2018-03-17T09:50:26.571Z,8.60
2018-03-17T09:52:54.102Z,5.33
2018-03-17T09:55:21.660Z,7.13
2018-03-17T09:57:49.991Z,10.33
2018-03-17T10:00:17.520Z,9.10
2018-03-17T10:02:45.828Z,6.60
2018-03-17T10:05:13.345Z,6.40
2018-03-17T10:07:41.630Z,10.17
2018-03-17T10:10:09.966Z,7.17
2018-03-17T10:12:37.485Z,7.10
2018-03-17T10:15:05.000Z,6.50
2018-03-17T10:17:32.573Z,6.30
2018-03-17T10:20:00.940Z,6.43
2018-03-17T10:22:28.461Z,8.80
2018-03-17T10:24:56.030Z,6.20
2018-03-17T10:27:24.340Z,9.70
2018-03-17T10:29:51.862Z,9.07
2018-03-17T10:32:19.415Z,6.17
2018-03-17T10:34:46.963Z,6.70
2018-03-17T10:37:14.480Z,7.43
2018-03-17T10:39:43.878Z,11.20
2018-03-17T10:42:11.389Z,12.90
2018-03-17T10:44:38.909Z,17.43
2018-03-17T10:47:07.230Z,16.17
2018-03-17T10:49:36.647Z,17.83
2018-03-17T10:52:04.193Z,20.20
2018-03-17T10:54:32.447Z,17.87
2018-03-17T10:56:59.975Z,20.80
2018-03-17T10:59:28.267Z,19.00
2018-03-17T11:02:01.631Z,20.30
2018-03-17T11:04:29.162Z,20.60
2018-03-17T11:06:56.729Z,22.43
2018-03-17T11:09:24.294Z,16.10
2018-03-17T11:11:51.839Z,21.17
2018-03-17T11:14:19.405Z,20.65
2018-03-17T11:16:46.984Z,18.73
2018-03-17T11:19:14.535Z,21.70
2018-03-17T11:21:42.094Z,22.92
2018-03-17T11:24:09.679Z,23.55
2018-03-17T11:26:37.994Z,20.00
2018-03-17T11:29:05.524Z,19.20
2018-03-17T11:31:33.868Z,25.05
2018-03-17T11:34:01.420Z,19.17
2018-03-17T11:36:28.951Z,21.05
2018-03-17T11:38:56.512Z,16.33
2018-03-17T11:41:24.066Z,25.00
2018-03-17T11:43:51.616Z,31.70
2018-03-17T11:46:19.157Z,28.12
2018-03-17T11:48:47.465Z,22.58
2018-03-17T11:51:15.001Z,24.05
2018-03-17T11:53:42.575Z,25.00
2018-03-17T11:56:10.096Z,29.02
2018-03-17T11:58:37.646Z,24.00
2018-03-17T12:01:05.211Z,22.80
2018-03-17T12:03:32.758Z,24.42
2018-03-17T12:06:00.314Z,24.27
2018-03-17T12:08:27.877Z,21.80
2018-03-17T12:10:55.416Z,24.63
2018-03-17T12:13:22.946Z,26.30
2018-03-17T12:15:50.521Z,30.52
2018-03-17T12:18:18.076Z,34.83
2018-03-17T12:20:45.602Z,26.70
2018-03-17T12:23:13.910Z,28.17
2018-03-17T12:25:41.445Z,25.55
2018-03-17T12:28:09.730Z,27.55
2018-03-17T12:30:37.299Z,31.87
2018-03-17T12:33:04.835Z,30.42
2018-03-17T12:35:33.147Z,26.60
2018-03-17T12:38:00.704Z,27.40
2018-03-17T12:40:28.236Z,28.52
2018-03-17T12:42:56.545Z,25.42
2018-03-17T12:45:24.095Z,28.87
2018-03-17T12:47:51.632Z,29.98
2018-03-17T12:50:19.932Z,27.37
2018-03-17T12:52:47.513Z,25.77
2018-03-17T12:55:15.048Z,26.50
2018-03-17T12:57:42.569Z,31.08
2018-03-17T13:00:10.903Z,31.55
2018-03-17T13:02:38.424Z,31.15
2018-03-17T13:05:06.725Z,32.60
2018-03-17T13:07:34.268Z,31.90
2018-03-17T13:10:01.821Z,35.80
2018-03-17T13:12:30.129Z,28.12
2018-03-17T13:14:57.670Z,34.00
2018-03-17T13:17:25.200Z,30.12
2018-03-17T13:19:53.513Z,35.45
2018-03-17T13:22:21.070Z,32.92
2018-03-17T13:24:48.589Z,33.42
2018-03-17T13:27:27.902Z,32.75
2018-03-17T13:29:55.444Z,36.60
2018-03-17T13:32:34.991Z,33.83
2018-03-17T13:35:02.567Z,34.75
2018-03-17T13:37:37.102Z,33.80
2018-03-17T13:40:16.512Z,43.20
2018-03-17T13:42:44.079Z,35.38
2018-03-17T13:45:11.598Z,37.35
2018-03-17T13:47:39.150Z,33.78
2018-03-17T13:50:06.757Z,33.20
2018-03-17T13:52:34.268Z,32.83
2018-03-17T13:55:01.811Z,36.20
2018-03-17T13:57:30.138Z,29.08
2018-03-17T13:59:57.687Z,31.20
2018-03-17T14:02:25.212Z,25.60
2018-03-17T14:04:53.554Z,35.30
2018-03-17T14:07:21.078Z,33.78
2018-03-17T14:09:48.626Z,32.58
2018-03-17T14:12:16.193Z,29.58
2018-03-17T14:14:43.718Z,31.35
2018-03-17T14:17:12.071Z,33.55
2018-03-17T14:19:39.639Z,33.50
2018-03-17T14:22:07.172Z,33.60
2018-03-17T14:24:34.700Z,29.98
2018-03-17T14:27:02.260Z,32.90
2018-03-17T14:29:29.812Z,36.30
2018-03-17T14:31:57.344Z,30.60
2018-03-17T14:34:24.910Z,22.92
2018-03-17T14:36:52.462Z,28.23
2018-03-17T14:39:19.999Z,38.30
2018-03-17T14:41:47.547Z,26.85
2018-03-17T14:44:15.060Z,29.10
2018-03-17T14:46:42.604Z,30.50
2018-03-17T14:49:10.937Z,27.20
2018-03-17T14:51:38.470Z,29.33
2018-03-17T14:54:06.003Z,29.70
2018-03-17T14:56:34.342Z,28.80
2018-03-17T14:59:01.870Z,27.02
2018-03-17T15:01:29.402Z,30.98
2018-03-17T15:03:57.735Z,31.12
2018-03-17T15:06:25.278Z,27.13
2018-03-17T15:08:52.798Z,33.08
2018-03-17T15:11:21.108Z,30.92
2018-03-17T15:13:48.642Z,29.42
2018-03-17T15:16:16.170Z,27.55
2018-03-17T15:18:43.736Z,26.35
2018-03-17T15:21:12.020Z,33.67
2018-03-17T15:23:40.321Z,28.67
2018-03-17T15:26:07.880Z,27.73
2018-03-17T15:28:35.399Z,34.17
2018-03-17T15:31:02.958Z,35.25
2018-03-17T15:33:30.510Z,30.10
2018-03-17T15:35:58.034Z,30.52
2018-03-17T15:38:25.546Z,30.58
2018-03-17T15:40:53.872Z,30.95
2018-03-17T15:43:21.427Z,34.45
2018-03-17T15:45:49.712Z,34.45
2018-03-17T15:48:17.271Z,35.78
2018-03-17T15:50:44.791Z,42.30
2018-03-17T15:53:13.854Z,37.83
2018-03-17T15:55:41.393Z,38.60
2018-03-17T15:58:08.941Z,47.00
2018-03-17T16:00:36.475Z,41.22
2018-03-17T16:03:04.056Z,52.35
2018-03-17T16:05:31.591Z,44.33
2018-03-17T16:07:59.114Z,46.33
2018-03-17T16:10:26.655Z,43.42
2018-03-17T16:12:54.184Z,42.55
2018-03-17T16:15:21.705Z,48.10
2018-03-17T16:17:50.042Z,42.17
2018-03-17T16:20:17.586Z,50.97
2018-03-17T16:22:45.967Z,52.00
2018-03-17T16:25:13.538Z,55.35
2018-03-17T16:27:41.084Z,52.22
2018-03-17T16:30:08.601Z,50.20
2018-03-17T16:32:36.904Z,46.88
2018-03-17T16:35:04.441Z,52.28
2018-03-17T16:37:32.745Z,47.92
2018-03-17T16:40:00.291Z,55.78
2018-03-17T16:42:27.823Z,50.20
2018-03-17T16:44:56.132Z,42.75
2018-03-17T16:47:23.696Z,51.80
2018-03-17T16:49:51.214Z,47.88
2018-03-17T16:52:18.737Z,47.40
2018-03-17T16:54:46.284Z,45.63
2018-03-17T16:57:13.813Z,58.38
2018-03-17T16:59:41.331Z,45.95
2018-03-17T17:02:08.894Z,50.10
2018-03-17T17:04:36.430Z,51.63
2018-03-17T17:07:03.978Z,46.97
2018-03-17T17:09:31.540Z,43.80
2018-03-17T17:11:59.076Z,57.47
2018-03-17T17:14:26.623Z,49.67
2018-03-17T17:16:54.953Z,52.05
2018-03-17T17:19:22.470Z,54.65
2018-03-17T17:21:49.995Z,57.25
2018-03-17T17:24:17.548Z,51.40
2018-03-17T17:26:45.868Z,54.25
2018-03-17T17:29:13.396Z,46.90
2018-03-17T17:31:41.727Z,47.75
2018-03-17T17:34:09.268Z,49.60
2018-03-17T17:36:36.801Z,53.33
2018-03-17T17:39:05.122Z,49.63
2018-03-17T17:41:32.656Z,54.40
2018-03-17T17:44:00.179Z,47.20
2018-03-17T17:46:27.737Z,47.15
2018-03-17T17:48:55.287Z,55.15
2018-03-17T17:51:22.822Z,54.67
2018-03-17T17:53:50.370Z,53.00
2018-03-17T17:56:17.996Z,53.03
2018-03-17T17:58:45.486Z,46.47
2018-03-17T18:01:13.058Z,52.28
2018-03-17T18:03:40.599Z,51.92
2018-03-17T18:06:08.136Z,48.17
2018-03-17T18:08:36.460Z,54.00
2018-03-17T18:11:04.009Z,53.70
2018-03-17T18:13:31.536Z,59.15
2018-03-17T18:15:59.101Z,51.30
2018-03-17T18:18:26.637Z,61.95
2018-03-17T18:20:54.937Z,50.58
2018-03-17T18:23:22.492Z,63.00
2018-03-17T18:25:50.004Z,52.95
2018-03-17T18:28:17.535Z,54.97
2018-03-17T18:30:45.080Z,53.35
2018-03-17T18:33:12.595Z,56.83
2018-03-17T18:35:40.120Z,53.00
2018-03-17T18:38:07.675Z,51.13
2018-03-17T18:40:35.191Z,56.47
2018-03-17T18:43:03.475Z,59.35
2018-03-17T18:45:31.020Z,73.80
2018-03-17T18:47:59.310Z,54.05
2018-03-17T18:50:26.835Z,59.72
2018-03-17T18:52:54.396Z,83.90
2018-03-17T18:55:21.919Z,51.08
2018-03-17T18:57:49.437Z,51.10
2018-03-17T19:00:17.806Z,44.50
2018-03-17T19:02:45.337Z,46.30
2018-03-17T19:05:12.851Z,42.42
2018-03-17T19:07:40.395Z,44.85
2018-03-17T19:10:08.716Z,41.47
2018-03-17T19:12:36.240Z,42.83
2018-03-17T19:15:03.812Z,42.38
2018-03-17T19:17:31.340Z,49.90
2018-03-17T19:19:59.638Z,50.00
2018-03-17T19:22:27.204Z,50.38
2018-03-17T19:24:54.735Z,42.17
2018-03-17T19:27:23.052Z,44.75
2018-03-17T19:29:50.595Z,39.63
2018-03-17T19:32:18.114Z,41.00
2018-03-17T19:34:45.656Z,39.90
2018-03-17T19:37:13.204Z,37.72
2018-03-17T19:39:40.740Z,43.08
2018-03-17T19:42:08.352Z,39.00
2018-03-17T19:44:35.910Z,42.97
2018-03-17T19:47:03.429Z,36.90
2018-03-17T19:49:30.956Z,42.00
2018-03-17T19:51:59.273Z,42.47
2018-03-17T19:54:26.796Z,40.72
2018-03-17T19:56:54.322Z,37.83
2018-03-17T19:59:21.871Z,44.33
2018-03-17T20:01:49.400Z,38.55
2018-03-17T20:04:16.918Z,39.30
2018-03-17T20:06:45.233Z,44.58
2018-03-17T20:09:12.777Z,46.65
2018-03-17T20:11:40.307Z,42.50
2018-03-17T20:14:08.628Z,43.95
2018-03-17T20:16:36.193Z,42.08
2018-03-17T20:19:04.547Z,39.35
2018-03-17T20:21:32.162Z,38.00
2018-03-17T20:23:59.685Z,45.42
2018-03-17T20:26:27.202Z,35.80
2018-03-17T20:28:55.518Z,40.40
2018-03-17T20:31:23.083Z,29.77
2018-03-17T20:33:50.611Z,35.78
2018-03-17T20:36:18.939Z,33.38
2018-03-17T20:38:46.457Z,37.92
2018-03-17T20:41:13.987Z,34.80
2018-03-17T20:43:42.319Z,39.17
2018-03-17T20:46:09.847Z,42.38
2018-03-17T20:48:37.362Z,33.33
2018-03-17T20:51:04.930Z,33.33
2018-03-17T20:53:32.462Z,35.55
2018-03-17T20:55:59.988Z,35.92
2018-03-17T20:58:27.560Z,33.08
2018-03-17T21:00:55.079Z,38.03
2018-03-17T21:03:23.364Z,36.95
2018-03-17T21:05:51.995Z,38.50
2018-03-17T21:08:19.532Z,39.40
2018-03-17T21:10:47.050Z,41.05
2018-03-17T21:13:14.616Z,45.78
2018-03-17T21:15:42.899Z,38.13
2018-03-17T21:18:11.190Z,38.65
2018-03-17T21:20:38.734Z,34.53
2018-03-17T21:23:07.027Z,36.55
2018-03-17T21:25:34.540Z,37.60
2018-03-17T21:28:02.098Z,33.83
2018-03-17T21:30:30.387Z,37.72
2018-03-17T21:32:57.920Z,37.30
2018-03-17T21:35:25.486Z,29.48
2018-03-17T21:37:53.009Z,31.02
2018-03-17T21:40:20.529Z,28.20
2018-03-17T21:42:48.069Z,34.97
2018-03-17T21:45:15.600Z,26.90
2018-03-17T21:47:43.119Z,29.85
2018-03-17T21:50:11.455Z,32.30
2018-03-17T21:52:38.973Z,26.40
2018-03-17T21:55:06.504Z,31.85
2018-03-17T21:57:34.835Z,27.90
2018-03-17T22:00:02.354Z,29.10
2018-03-17T22:02:30.638Z,30.30
2018-03-17T22:04:58.958Z,29.00
2018-03-17T22:07:26.473Z,32.60
2018-03-17T22:09:54.774Z,34.70
2018-03-17T22:12:22.339Z,35.28
2018-03-17T22:14:49.862Z,29.90
2018-03-17T22:17:18.151Z,35.17
2018-03-17T22:19:45.713Z,27.70
2018-03-17T22:22:13.244Z,35.13
2018-03-17T22:24:41.543Z,37.03
2018-03-17T22:27:09.097Z,34.33
2018-03-17T22:29:37.394Z,40.72
2018-03-17T22:32:04.935Z,33.47
2018-03-17T22:34:33.242Z,38.83
2018-03-17T22:37:00.761Z,39.60
2018-03-17T22:39:29.056Z,39.80
2018-03-17T22:41:56.622Z,33.92
2018-03-17T22:44:24.148Z,41.33
2018-03-17T22:46:51.675Z,41.45
2018-03-17T22:49:19.216Z,35.65
2018-03-17T22:51:46.736Z,38.75
2018-03-17T22:54:15.030Z,39.47
2018-03-17T22:56:42.588Z,45.67
2018-03-17T22:59:10.536Z,40.60
2018-03-17T23:01:38.826Z,48.67
2018-03-17T23:04:07.135Z,48.10
2018-03-17T23:06:34.654Z,42.22
2018-03-17T23:09:02.956Z,45.15
2018-03-17T23:11:30.496Z,41.75
2018-03-17T23:13:58.788Z,48.63
2018-03-17T23:16:26.301Z,47.28
2018-03-17T23:18:53.841Z,41.67
2018-03-17T23:21:21.356Z,39.05
2018-03-17T23:23:48.893Z,34.72
2018-03-17T23:26:17.316Z,37.83
2018-03-17T23:28:44.832Z,52.97
2018-03-17T23:31:13.117Z,37.38
2018-03-17T23:33:40.713Z,38.40
2018-03-17T23:36:08.231Z,42.08
2018-03-17T23:38:36.528Z,39.60
2018-03-17T23:41:04.066Z,37.13
2018-03-17T23:43:32.363Z,45.63
2018-03-17T23:45:59.887Z,35.22
2018-03-17T23:48:27.441Z,45.97
2018-03-17T23:50:54.962Z,42.17
2018-03-17T23:53:22.496Z,48.53
2018-03-17T23:55:50.051Z,44.40
2018-03-17T23:58:17.575Z,40.58
